Latest Weather Observations for Truscott

IDW60801

Issued at 11:33 am WST Wednesday 27 July 2016 (issued every 30 minutes, with the page automatically refreshed every 10 minutes)

About weather observations | Map of weather stations | Latest weather observations for WA | Other Formats
Station Details ID: 001020 Name: TRUSCOTT Lat: -14.09 Lon: 126.39 Height: 51.0 m
Data from the previous 72 hours. | See also: Recent months at Truscott
Date/Time
WST
Temp
°C
App
Temp
°C
Dew
Point
°C
Rel
Hum
%
Delta-T
°C
Wind Press
QNH
hPa
Press
MSL
hPa
Rain since
9am
mm
Dir  Spd
km/h
Gust
km/h
Spd
kts
Gust
kts
27/11:30am 31.0 26.1 7.0 22 13.0 ESE 22 30 12 16 1013.0 - 0.0
27/11:01am 30.0 24.0 7.0 23 12.4 E 28 46 15 25 1014.0 - 0.0
27/11:00am 30.7 25.1 7.2 23 12.8 E 26 46 14 25 1014.0 1014.0 0.0
27/10:30am 30.0 25.0 8.0 25 12.1 E 24 - 13 - 1014.0 - 0.0
27/10:00am 29.6 24.2 8.1 26 11.8 E 26 - 14 - 1015.0 1014.9 0.0
27/09:30am 29.0 24.2 9.0 28 11.1 E 24 - 13 - 1015.0 - 0.0
27/09:00am 28.3 24.3 9.1 30 10.6 E 20 39 11 21 1015.0 1015.2 0.0
27/08:30am 28.0 24.3 10.0 32 10.1 E 20 - 11 - 1015.0 - 0.0
27/08:00am 26.7 23.9 11.2 38 8.8 ESE 17 - 9 - 1015.0 1015.0 0.0
27/07:30am 25.0 25.7 16.0 57 5.5 SE 7 - 4 - 1015.0 - 0.0
27/07:00am 23.5 24.7 17.3 68 3.8 SE 7 - 4 - 1014.0 1014.7 0.0
27/06:30am 21.0 23.1 19.0 88 1.3 S 6 - 3 - 1014.0 - 0.0
27/06:00am 20.7 22.3 17.9 84 1.7 S 6 - 3 - 1014.0 1013.9 0.0
27/05:30am 20.0 20.7 16.0 78 2.4 S 7 - 4 - 1013.0 - 0.0
27/05:00am 20.4 21.1 15.6 74 2.9 SSE 6 - 3 - 1013.0 1013.2 0.0
27/04:30am 21.0 21.7 16.0 73 3.0 S 7 - 4 - 1013.0 - 0.0
27/04:00am 21.0 21.9 16.6 76 2.7 S 7 - 4 - 1013.0 1013.0 0.0
27/03:30am 21.0 22.5 18.0 83 1.9 S 7 - 4 - 1013.0 - 0.0
27/03:00am 20.6 22.1 18.0 85 1.6 S 7 - 4 - 1012.0 1012.5 0.0
27/02:30am 21.0 22.9 19.0 88 1.3 S 7 - 4 - 1012.0 - 0.0
27/02:00am 20.9 22.7 18.8 88 1.3 SSW 7 - 4 - 1012.0 1012.7 0.0
27/01:30am 21.0 23.5 19.0 88 1.3 SSW 4 - 2 - 1013.0 - 0.0
27/01:00am 22.0 25.1 19.4 85 1.7 SE 2 - 1 - 1013.0 1012.9 0.0
27/12:30am 21.0 24.3 19.0 88 1.3 CALM 0 - 0 - 1013.0 - 0.0
27/12:00am 21.4 24.7 19.0 86 1.5 CALM 0 - 0 - 1013.0 1013.3 0.0
 
Date/Time
WST
Temp
°C
App
Temp
°C
Dew
Point
°C
Rel
Hum
%
Delta-T
°C
Wind Press
QNH
hPa
Press
MSL
hPa
Rain since
9am
mm
Dir  Spd
km/h
Gust
km/h
Spd
kts
Gust
kts
26/11:30pm 21.0 24.3 19.0 88 1.3 CALM 0 - 0 - 1013.0 - 0.0
26/11:00pm 21.8 25.0 18.8 83 1.9 CALM 0 - 0 - 1013.0 1013.5 0.0
26/10:30pm 22.0 24.8 18.0 78 2.5 CALM 0 - 0 - 1013.0 - 0.0
26/10:00pm 21.9 24.9 18.5 81 2.1 CALM 0 - 0 - 1013.0 1013.6 0.0
26/09:30pm 22.0 24.8 18.0 78 2.5 CALM 0 - 0 - 1013.0 - 0.0
26/09:00pm 22.9 25.8 18.2 75 2.9 CALM 0 - 0 - 1013.0 1013.6 0.0
26/08:30pm 24.0 26.1 19.0 73 3.2 NE 6 - 3 - 1013.0 - 0.0
26/08:00pm 24.2 26.0 17.4 65 4.2 E 4 - 2 - 1013.0 1013.4 0.0
26/07:30pm 25.0 26.7 18.0 65 4.4 E 6 - 3 - 1013.0 - 0.0
26/07:00pm 25.8 26.9 17.2 59 5.4 ENE 7 - 4 - 1013.0 1012.8 0.0
26/06:30pm 26.0 27.7 18.0 61 5.1 NE 6 - 3 - 1012.0 - 0.0
26/06:00pm 27.1 28.5 17.8 56 5.9 NNE 7 - 4 - 1012.0 1011.7 0.0
26/05:30pm 28.0 29.1 18.0 54 6.4 N 9 - 5 - 1011.0 - 0.0
26/05:00pm 28.9 28.9 17.1 49 7.4 N 13 - 7 - 1011.0 1010.7 0.0
26/04:30pm 30.0 28.8 16.0 42 8.7 N 17 - 9 - 1010.0 - 0.0
26/04:00pm 30.3 29.0 16.7 44 8.6 N 19 - 10 - 1010.0 1009.9 0.0
26/03:30pm 31.0 28.4 15.0 38 9.8 NNE 22 - 12 - 1009.0 - 0.0
26/03:00pm 31.9 29.7 14.5 34 10.7 NNE 19 - 10 - 1009.0 1009.5 0.0
26/02:30pm 32.0 29.8 15.0 35 10.5 N 20 - 11 - 1009.0 - 0.0
26/02:00pm 31.8 30.2 14.9 36 10.4 N 17 - 9 - 1010.0 1009.9 0.0
26/01:30pm 31.0 29.2 16.0 40 9.4 N 20 - 11 - 1010.0 - 0.0
26/01:00pm 33.4 29.9 8.8 22 13.9 ENE 17 - 9 - 1010.0 1010.4 0.0
26/12:30pm 33.0 29.9 9.0 22 13.6 E 15 - 8 - 1011.0 - 0.0
26/12:00pm 33.0 30.3 9.1 23 13.5 E 13 - 7 - 1011.0 1011.4 0.0
26/11:30am 32.0 28.8 10.0 25 12.6 E 17 - 9 - 1012.0 - 0.0
26/11:00am 32.1 29.5 10.8 27 12.3 E 15 - 8 - 1012.0 1012.5 0.0
26/10:30am 32.0 29.5 11.0 27 12.2 E 15 - 8 - 1013.0 - 0.0
26/10:00am 31.0 28.3 10.4 28 11.8 E 15 - 8 - 1013.0 1013.3 0.0
26/09:30am 30.0 27.9 11.0 31 10.9 ESE 13 - 7 - 1013.0 - 0.0
26/09:00am 29.2 26.1 11.7 34 10.1 ESE 19 - 10 - 1014.0 1013.8 0.0
26/08:30am 28.0 27.9 17.0 51 6.9 SE 13 - 7 - 1014.0 - 0.0
26/08:00am 26.8 29.4 20.4 68 4.2 SSE 7 - 4 - 1014.0 1013.8 0.0
26/07:30am 24.0 27.1 21.0 83 2.0 SSE 6 - 3 - 1013.0 - 0.0
26/07:00am 22.7 26.1 21.7 94 0.7 SE 6 - 3 - 1013.0 1013.5 0.0
26/06:30am 21.0 23.9 21.0 100 0.0 SE 7 - 4 - 1013.0 - 0.0
26/06:22am 21.0 24.1 21.0 100 0.0 SSE 6 - 3 - 1013.0 - 0.0
26/06:07am 20.0 22.6 20.0 100 0.0 SSE 6 - 3 - 1013.0 - 0.0
26/06:00am 20.5 23.0 19.8 96 0.4 SSE 6 - 3 - 1013.0 1013.0 0.0
26/05:42am 21.0 24.1 21.0 100 0.0 SE 6 - 3 - 1013.0 - 0.0
26/05:30am 22.0 24.9 21.0 94 0.7 S 7 - 4 - 1012.0 - 0.0
26/05:17am 22.0 24.9 21.0 94 0.7 S 7 - 4 - 1012.0 - 0.0
26/05:00am 21.9 25.4 21.1 95 0.5 S 4 - 2 - 1012.0 1012.3 0.0
26/04:51am 22.0 25.1 21.0 94 0.7 S 6 - 3 - 1012.0 - 0.0
26/04:40am 22.0 25.8 21.0 94 0.7 SSE 2 - 1 - 1012.0 - 0.0
26/04:30am 23.0 26.4 22.0 94 0.7 SSW 7 - 4 - 1012.0 - 0.0
26/04:00am 23.2 26.2 22.0 93 0.8 S 9 - 5 - 1012.0 1012.2 0.0
26/03:30am 23.0 25.3 22.0 94 0.7 SSW 13 - 7 - 1012.0 - 0.0
26/03:00am 23.1 26.3 22.4 96 0.5 SW 9 - 5 - 1012.0 1012.0 0.0
26/02:30am 24.0 27.6 23.0 94 0.7 SSW 9 - 5 - 1012.0 - 0.0
26/02:16am 24.0 28.1 24.0 100 0.0 SSW 9 - 5 - 1012.0 - 0.0
26/02:00am 23.7 27.7 23.7 100 0.0 SSW 9 - 5 - 1012.0 1012.4 0.0
26/01:44am 24.0 27.8 24.0 100 0.0 SSW 11 - 6 - 1012.0 - 0.0
26/01:30am 24.0 28.1 24.0 100 0.0 SSW 9 - 5 - 1012.0 - 0.0
26/01:00am 24.2 28.5 24.2 100 0.0 SSW 9 - 5 - 1012.0 1012.7 0.0
26/12:53am 24.0 28.1 24.0 100 0.0 SW 9 - 5 - 1012.0 - 0.0
26/12:47am 24.0 28.1 24.0 100 0.0 SW 9 - 5 - 1012.0 - 0.0
26/12:43am 24.0 28.1 24.0 100 0.0 SW 9 - 5 - 1013.0 - 0.0
26/12:30am 24.0 28.1 24.0 100 0.0 SW 9 - 5 - 1013.0 - 0.0
26/12:00am 22.6 27.4 22.1 97 0.3 CALM 0 - 0 - 1013.0 1012.9 0.0
 
Date/Time
WST
Temp
°C
App
Temp
°C
Dew
Point
°C
Rel
Hum
%
Delta-T
°C
Wind Press
QNH
hPa
Press
MSL
hPa
Rain since
9am
mm
Dir  Spd
km/h
Gust
km/h
Spd
kts
Gust
kts
25/11:30pm 23.0 27.7 22.0 94 0.7 CALM 0 - 0 - 1013.0 - 0.0
25/11:00pm 23.3 27.9 22.5 95 0.5 SW 2 - 1 - 1013.0 1013.1 0.0
25/10:30pm 23.0 27.2 21.0 88 1.3 CALM 0 - 0 - 1013.0 - 0.0
25/10:00pm 23.1 27.7 21.7 92 0.9 CALM 0 - 0 - 1013.0 1013.1 0.0
25/09:30pm 23.0 27.7 22.0 94 0.7 CALM 0 - 0 - 1013.0 - 0.0
25/09:00pm 23.8 28.1 21.9 89 1.3 SSW 2 - 1 - 1013.0 1013.2 0.0
25/08:30pm 25.0 29.7 22.0 83 2.0 CALM 0 - 0 - 1013.0 - 0.0
25/08:00pm 24.9 29.2 22.0 84 1.9 NNW 2 - 1 - 1013.0 1012.8 0.0
25/07:30pm 26.0 29.0 22.0 78 2.7 N 9 - 5 - 1012.0 - 0.0
25/07:00pm 26.0 28.7 22.1 79 2.6 NNE 11 - 6 - 1012.0 1012.1 0.0
25/06:30pm 26.0 28.6 22.0 78 2.7 NNE 11 - 6 - 1011.0 - 0.0
25/06:00pm 26.5 28.7 21.9 76 3.1 NNE 13 - 7 - 1011.0 1011.3 0.0
25/05:30pm 27.0 28.4 21.0 69 4.0 NNE 15 - 8 - 1011.0 - 0.0
25/05:00pm 27.3 28.3 21.1 69 4.1 NNE 17 - 9 - 1010.0 1010.6 0.0
25/04:30pm 28.0 28.5 20.0 61 5.2 NNE 17 - 9 - 1010.0 - 0.0
25/04:00pm 28.7 28.8 19.1 56 6.2 N 17 - 9 - 1010.0 1010.1 0.0
25/03:30pm 30.0 29.6 18.0 48 7.7 N 17 - 9 - 1010.0 - 0.0
25/03:00pm 30.9 30.3 17.6 45 8.5 N 17 - 9 - 1010.0 1009.9 0.0
25/02:30pm 31.0 30.6 18.0 45 8.4 N 17 - 9 - 1010.0 - 0.0
25/02:00pm 30.7 29.6 17.7 45 8.3 N 20 - 11 - 1010.0 1009.8 0.0
25/01:30pm 32.0 30.2 17.0 40 9.5 N 22 - 12 - 1010.0 - 0.0
25/01:00pm 33.1 31.9 15.1 33 11.2 NNE 15 - 8 - 1010.0 1010.1 0.0
25/12:30pm 33.0 31.1 13.0 29 12.0 ENE 15 - 8 - 1011.0 - 0.0
25/12:00pm 32.6 30.2 12.8 30 11.9 E 17 - 9 - 1011.0 1011.3 0.0
25/11:30am 32.0 29.7 13.0 31 11.4 E 17 - 9 - 1012.0 - 0.0
25/11:00am 32.0 29.3 12.8 31 11.5 ENE 19 - 10 - 1012.0 1012.4 0.0
25/10:30am 31.0 28.0 12.0 31 11.2 E 19 - 10 - 1013.0 - 0.0
25/10:00am 31.3 28.0 11.7 30 11.5 E 20 - 11 - 1013.0 1013.2 0.0
25/09:30am 31.0 28.0 12.0 31 11.2 E 19 - 10 - 1013.0 - 0.0
25/09:00am 30.6 27.8 11.5 30 11.1 SE 17 - 9 - 1013.0 1013.4 0.0
25/08:30am 29.0 28.9 16.0 45 8.1 SE 11 - 6 - 1013.0 - 0.0
25/08:00am 27.9 28.9 16.8 50 6.9 SE 7 - 4 - 1013.0 1013.3 0.0
25/07:30am 27.0 28.1 17.0 54 6.2 SSE 7 - 4 - 1013.0 - 0.0
25/07:00am 24.5 25.8 17.5 65 4.4 SSE 7 - 4 - 1012.0 1012.7 0.0
25/06:30am 23.0 24.5 18.0 73 3.1 SSE 7 - 4 - 1012.0 - 0.0
25/06:00am 21.6 23.4 18.2 81 2.1 SSE 6 - 3 - 1012.0 1012.1 0.0
25/05:30am 22.0 23.9 19.0 83 1.9 SE 7 - 4 - 1012.0 - 0.0
25/05:00am 21.1 22.8 18.5 85 1.6 ESE 7 - 4 - 1012.0 1011.7 0.0
25/04:30am 22.0 23.9 19.0 83 1.9 SSE 7 - 4 - 1011.0 - 0.0
25/04:00am 22.1 23.9 18.7 81 2.1 SSE 7 - 4 - 1011.0 1011.3 0.0
25/03:30am 22.0 23.9 19.0 83 1.9 SSE 7 - 4 - 1011.0 - 0.0
25/03:00am 22.2 24.2 18.8 81 2.1 ESE 6 - 3 - 1011.0 1011.1 0.0
25/02:30am 23.0 25.6 20.0 83 1.9 S 6 - 3 - 1011.0 - 0.0
25/02:00am 22.4 24.7 19.9 86 1.6 S 7 - 4 - 1011.0 1011.5 0.0
25/01:30am 22.0 25.1 21.0 94 0.7 SSE 6 - 3 - 1011.0 - 0.0
25/01:00am 21.9 24.5 20.0 89 1.2 SSE 6 - 3 - 1012.0 1011.9 0.0
25/12:30am 22.0 24.6 20.0 88 1.3 SSE 6 - 3 - 1012.0 - 0.0
25/12:03am 22.0 24.6 20.0 88 1.3 SSE 6 - 3 - 1012.0 - 0.0
25/12:00am 22.0 24.6 20.1 89 1.2 SSE 6 - 3 - 1012.0 1012.4 0.0
 
Date/Time
WST
Temp
°C
App
Temp
°C
Dew
Point
°C
Rel
Hum
%
Delta-T
°C
Wind Press
QNH
hPa
Press
MSL
hPa
Rain since
9am
mm
Dir  Spd
km/h
Gust
km/h
Spd
kts
Gust
kts
24/11:52pm 22.0 25.0 20.0 88 1.3 S 4 - 2 - 1012.0 - 0.0
24/11:30pm 23.0 26.7 20.0 83 1.9 CALM 0 - 0 - 1012.0 - 0.0
24/11:00pm 22.9 26.1 20.4 86 1.6 SSW 4 - 2 - 1013.0 1012.8 0.0
24/10:30pm 23.0 26.7 20.0 83 1.9 CALM 0 - 0 - 1013.0 - 0.0
24/10:00pm 22.9 26.7 20.1 84 1.8 CALM 0 - 0 - 1013.0 1013.0 0.0
24/09:30pm 23.0 26.7 20.0 83 1.9 CALM 0 - 0 - 1013.0 - 0.0
24/09:00pm 23.6 26.2 20.5 83 2.0 SSE 7 - 4 - 1013.0 1013.0 0.0
24/08:30pm 24.0 26.9 21.0 83 2.0 SSE 7 - 4 - 1013.0 - 0.0
24/08:00pm 23.7 27.2 20.4 82 2.1 S 2 - 1 - 1012.0 1012.3 0.0
24/07:30pm 25.0 29.2 21.0 78 2.6 CALM 0 - 0 - 1012.0 - 0.0
24/07:00pm 25.3 29.0 20.8 76 3.0 NNW 2 - 1 - 1012.0 1011.7 0.0
24/06:30pm 26.0 29.1 21.0 74 3.3 N 6 - 3 - 1011.0 - 0.0
24/06:00pm 26.6 29.1 20.2 68 4.2 N 7 - 4 - 1011.0 1010.8 0.0
24/05:30pm 27.0 28.6 20.0 65 4.6 N 11 - 6 - 1010.0 - 0.0
24/05:00pm 28.0 28.4 18.1 55 6.3 N 13 - 7 - 1010.0 1009.9 0.0
24/04:30pm 29.0 29.3 18.0 51 7.0 N 13 - 7 - 1009.0 - 0.0
24/04:00pm 29.4 28.6 17.2 47 7.7 NNE 17 - 9 - 1009.0 1009.4 0.0
24/03:30pm 30.0 29.2 18.0 48 7.7 NNE 19 - 10 - 1009.0 - 0.0
24/03:00pm 30.9 29.2 15.7 39 9.5 NNE 19 - 10 - 1009.0 1009.1 0.0
24/02:30pm 31.0 28.1 14.0 35 10.3 NNE 22 - 12 - 1009.0 - 0.0
24/02:00pm 31.7 30.6 17.2 42 9.2 N 19 - 10 - 1009.0 1009.1 0.0
24/01:30pm 34.0 33.5 15.0 32 11.8 N 11 - 6 - 1009.0 - 0.0
24/01:00pm 35.5 33.8 12.5 25 13.9 E 13 - 7 - 1009.0 1009.5 0.0
24/12:30pm 35.0 32.1 11.0 23 14.1 ENE 17 - 9 - 1010.0 - 0.0
24/12:00pm 34.6 31.9 11.7 25 13.6 E 17 - 9 - 1011.0 1010.8 0.0

Other Formats:

Comma delimited format used in spreadsheet applications
http://www.bom.gov.au/fwo/IDW60801/IDW60801.95101.axf

JavaScript Object Notation format (JSON) in row-major order
http://www.bom.gov.au/fwo/IDW60801/IDW60801.95101.json